sensor_id;sensor_type;location;lat;lon;timestamp;P1;durP1;ratioP1;P2;durP2;ratioP2
51214;SDS011;63849;47.546;19.254;2023-05-10T00:02:11;14.55;;;6.70;;
51214;SDS011;63849;47.546;19.254;2023-05-10T00:04:37;9.27;;;5.68;;
51214;SDS011;63849;47.546;19.254;2023-05-10T00:07:02;5.60;;;4.18;;
51214;SDS011;63849;47.546;19.254;2023-05-10T00:09:28;4.47;;;3.58;;
51214;SDS011;63849;47.546;19.254;2023-05-10T00:11:54;5.65;;;3.88;;
51214;SDS011;63849;47.546;19.254;2023-05-10T00:14:20;6.53;;;4.15;;
51214;SDS011;63849;47.546;19.254;2023-05-10T00:16:45;3.60;;;3.10;;
51214;SDS011;63849;47.546;19.254;2023-05-10T00:19:11;4.25;;;3.55;;
51214;SDS011;63849;47.546;19.254;2023-05-10T00:21:37;5.65;;;3.60;;
51214;SDS011;63849;47.546;19.254;2023-05-10T00:24:03;3.72;;;3.33;;
51214;SDS011;63849;47.546;19.254;2023-05-10T00:26:29;6.53;;;4.10;;
51214;SDS011;63849;47.546;19.254;2023-05-10T00:28:55;4.05;;;3.65;;
51214;SDS011;63849;47.546;19.254;2023-05-10T00:31:21;3.67;;;3.38;;
51214;SDS011;63849;47.546;19.254;2023-05-10T00:33:47;4.75;;;3.45;;
51214;SDS011;63849;47.546;19.254;2023-05-10T00:36:13;4.05;;;3.50;;
51214;SDS011;63849;47.546;19.254;2023-05-10T00:38:38;6.32;;;4.18;;
51214;SDS011;63849;47.546;19.254;2023-05-10T00:41:05;4.60;;;3.63;;
51214;SDS011;63849;47.546;19.254;2023-05-10T00:43:31;4.40;;;4.00;;
51214;SDS011;63849;47.546;19.254;2023-05-10T00:45:57;5.72;;;3.58;;
51214;SDS011;63849;47.546;19.254;2023-05-10T00:48:23;9.93;;;4.22;;
51214;SDS011;63849;47.546;19.254;2023-05-10T00:50:49;4.40;;;3.95;;
51214;SDS011;63849;47.546;19.254;2023-05-10T00:53:14;4.55;;;4.15;;
51214;SDS011;63849;47.546;19.254;2023-05-10T00:55:40;5.80;;;3.83;;
51214;SDS011;63849;47.546;19.254;2023-05-10T00:58:06;6.07;;;4.50;;
51214;SDS011;63849;47.546;19.254;2023-05-10T01:00:33;6.45;;;4.05;;
51214;SDS011;63849;47.546;19.254;2023-05-10T01:02:59;6.78;;;3.97;;
51214;SDS011;63849;47.546;19.254;2023-05-10T01:05:25;5.05;;;4.05;;
51214;SDS011;63849;47.546;19.254;2023-05-10T01:07:52;4.72;;;4.18;;
51214;SDS011;63849;47.546;19.254;2023-05-10T01:10:18;4.25;;;3.78;;
51214;SDS011;63849;47.546;19.254;2023-05-10T01:12:45;5.47;;;4.22;;
51214;SDS011;63849;47.546;19.254;2023-05-10T01:15:11;5.47;;;4.43;;
51214;SDS011;63849;47.546;19.254;2023-05-10T01:17:39;5.75;;;5.18;;
51214;SDS011;63849;47.546;19.254;2023-05-10T01:20:09;5.40;;;4.90;;
51214;SDS011;63849;47.546;19.254;2023-05-10T01:22:42;7.13;;;4.65;;
51214;SDS011;63849;47.546;19.254;2023-05-10T01:34:11;4.53;;;4.13;;
51214;SDS011;63849;47.546;19.254;2023-05-10T01:42:24;5.07;;;3.65;;
51214;SDS011;63849;47.546;19.254;2023-05-10T01:45:02;4.28;;;3.45;;
51214;SDS011;63849;47.546;19.254;2023-05-10T01:47:44;4.68;;;3.78;;
51214;SDS011;63849;47.546;19.254;2023-05-10T01:50:16;5.78;;;3.72;;
51214;SDS011;63849;47.546;19.254;2023-05-10T01:52:47;6.53;;;4.30;;
51214;SDS011;63849;47.546;19.254;2023-05-10T01:55:21;4.63;;;3.53;;
51214;SDS011;63849;47.546;19.254;2023-05-10T01:57:51;5.03;;;4.25;;
51214;SDS011;63849;47.546;19.254;2023-05-10T02:00:21;4.55;;;4.13;;
51214;SDS011;63849;47.546;19.254;2023-05-10T02:02:48;4.82;;;4.10;;
51214;SDS011;63849;47.546;19.254;2023-05-10T02:05:16;6.15;;;4.63;;
51214;SDS011;63849;47.546;19.254;2023-05-10T02:07:43;6.78;;;5.10;;
51214;SDS011;63849;47.546;19.254;2023-05-10T02:10:10;7.10;;;4.97;;
51214;SDS011;63849;47.546;19.254;2023-05-10T02:12:37;5.10;;;4.60;;
51214;SDS011;63849;47.546;19.254;2023-05-10T02:15:06;6.15;;;5.05;;
51214;SDS011;63849;47.546;19.254;2023-05-10T02:17:34;6.53;;;5.70;;
51214;SDS011;63849;47.546;19.254;2023-05-10T02:20:02;17.85;;;5.57;;
51214;SDS011;63849;47.546;19.254;2023-05-10T02:22:29;7.32;;;4.93;;
51214;SDS011;63849;47.546;19.254;2023-05-10T02:24:57;5.53;;;4.68;;
51214;SDS011;63849;47.546;19.254;2023-05-10T02:27:24;6.13;;;4.63;;
51214;SDS011;63849;47.546;19.254;2023-05-10T02:29:52;6.00;;;5.40;;
51214;SDS011;63849;47.546;19.254;2023-05-10T02:32:20;5.30;;;4.78;;
51214;SDS011;63849;47.546;19.254;2023-05-10T02:34:47;5.20;;;4.70;;
51214;SDS011;63849;47.546;19.254;2023-05-10T02:37:17;5.20;;;4.70;;
51214;SDS011;63849;47.546;19.254;2023-05-10T02:39:45;6.70;;;4.80;;
51214;SDS011;63849;47.546;19.254;2023-05-10T02:42:13;7.03;;;5.55;;
51214;SDS011;63849;47.546;19.254;2023-05-10T02:44:42;6.85;;;4.82;;
51214;SDS011;63849;47.546;19.254;2023-05-10T02:47:10;4.97;;;4.25;;
51214;SDS011;63849;47.546;19.254;2023-05-10T02:49:36;6.55;;;5.05;;
51214;SDS011;63849;47.546;19.254;2023-05-10T02:52:03;6.93;;;4.85;;
51214;SDS011;63849;47.546;19.254;2023-05-10T02:54:33;6.18;;;5.15;;
51214;SDS011;63849;47.546;19.254;2023-05-10T02:57:11;5.55;;;5.00;;
51214;SDS011;63849;47.546;19.254;2023-05-10T02:59:43;5.00;;;4.22;;
51214;SDS011;63849;47.546;19.254;2023-05-10T03:02:10;5.03;;;4.55;;
51214;SDS011;63849;47.546;19.254;2023-05-10T03:04:39;6.32;;;4.80;;
51214;SDS011;63849;47.546;19.254;2023-05-10T03:07:05;7.95;;;5.07;;
51214;SDS011;63849;47.546;19.254;2023-05-10T03:09:31;5.20;;;4.70;;
51214;SDS011;63849;47.546;19.254;2023-05-10T03:17:29;5.85;;;4.95;;
51214;SDS011;63849;47.546;19.254;2023-05-10T03:20:11;6.05;;;5.55;;
51214;SDS011;63849;47.546;19.254;2023-05-10T03:22:47;5.15;;;4.70;;
51214;SDS011;63849;47.546;19.254;2023-05-10T03:25:17;8.35;;;5.68;;
51214;SDS011;63849;47.546;19.254;2023-05-10T03:27:44;8.25;;;5.22;;
51214;SDS011;63849;47.546;19.254;2023-05-10T03:30:11;6.15;;;5.30;;
51214;SDS011;63849;47.546;19.254;2023-05-10T03:32:38;6.95;;;5.50;;
51214;SDS011;63849;47.546;19.254;2023-05-10T03:35:07;7.25;;;5.57;;
51214;SDS011;63849;47.546;19.254;2023-05-10T03:37:34;6.53;;;5.07;;
51214;SDS011;63849;47.546;19.254;2023-05-10T03:40:00;5.75;;;4.90;;
51214;SDS011;63849;47.546;19.254;2023-05-10T03:42:27;5.30;;;4.80;;
51214;SDS011;63849;47.546;19.254;2023-05-10T03:44:53;5.97;;;4.82;;
51214;SDS011;63849;47.546;19.254;2023-05-10T03:47:18;7.05;;;4.80;;
51214;SDS011;63849;47.546;19.254;2023-05-10T03:49:44;8.55;;;4.93;;
51214;SDS011;63849;47.546;19.254;2023-05-10T03:52:11;8.68;;;5.20;;
51214;SDS011;63849;47.546;19.254;2023-05-10T03:54:37;7.25;;;5.70;;
51214;SDS011;63849;47.546;19.254;2023-05-10T03:57:03;6.13;;;5.57;;
51214;SDS011;63849;47.546;19.254;2023-05-10T03:59:29;7.20;;;6.13;;
51214;SDS011;63849;47.546;19.254;2023-05-10T04:01:55;7.00;;;6.30;;
51214;SDS011;63849;47.546;19.254;2023-05-10T04:04:21;6.55;;;5.90;;
51214;SDS011;63849;47.546;19.254;2023-05-10T04:06:48;6.15;;;5.55;;
51214;SDS011;63849;47.546;19.254;2023-05-10T04:09:14;6.03;;;5.43;;
51214;SDS011;63849;47.546;19.254;2023-05-10T04:11:40;6.18;;;5.68;;
51214;SDS011;63849;47.546;19.254;2023-05-10T04:14:05;8.15;;;5.78;;
51214;SDS011;63849;47.546;19.254;2023-05-10T04:16:31;6.55;;;5.90;;
51214;SDS011;63849;47.546;19.254;2023-05-10T04:18:57;5.57;;;5.07;;
51214;SDS011;63849;47.546;19.254;2023-05-10T04:21:24;6.18;;;5.57;;
51214;SDS011;63849;47.546;19.254;2023-05-10T04:23:50;6.57;;;5.50;;
51214;SDS011;63849;47.546;19.254;2023-05-10T04:26:16;7.65;;;5.88;;
51214;SDS011;63849;47.546;19.254;2023-05-10T04:28:42;6.28;;;5.68;;
51214;SDS011;63849;47.546;19.254;2023-05-10T04:31:08;6.88;;;5.68;;
51214;SDS011;63849;47.546;19.254;2023-05-10T04:33:34;6.70;;;5.93;;
51214;SDS011;63849;47.546;19.254;2023-05-10T04:36:01;6.97;;;5.72;;
51214;SDS011;63849;47.546;19.254;2023-05-10T04:38:30;7.25;;;5.68;;
51214;SDS011;63849;47.546;19.254;2023-05-10T04:41:05;5.90;;;5.32;;
51214;SDS011;63849;47.546;19.254;2023-05-10T04:43:32;7.28;;;5.43;;
51214;SDS011;63849;47.546;19.254;2023-05-10T04:45:58;6.47;;;5.70;;
51214;SDS011;63849;47.546;19.254;2023-05-10T04:48:24;7.10;;;5.60;;
51214;SDS011;63849;47.546;19.254;2023-05-10T04:50:50;6.47;;;5.80;;
51214;SDS011;63849;47.546;19.254;2023-05-10T04:53:15;8.25;;;5.90;;
51214;SDS011;63849;47.546;19.254;2023-05-10T04:55:41;6.25;;;5.65;;
51214;SDS011;63849;47.546;19.254;2023-05-10T04:58:07;6.57;;;5.60;;
51214;SDS011;63849;47.546;19.254;2023-05-10T05:00:33;5.80;;;5.20;;
51214;SDS011;63849;47.546;19.254;2023-05-10T05:02:59;6.03;;;5.43;;
51214;SDS011;63849;47.546;19.254;2023-05-10T05:05:25;6.82;;;5.60;;
51214;SDS011;63849;47.546;19.254;2023-05-10T05:07:50;6.78;;;5.22;;
51214;SDS011;63849;47.546;19.254;2023-05-10T05:10:16;7.13;;;5.20;;
51214;SDS011;63849;47.546;19.254;2023-05-10T05:12:42;8.77;;;5.90;;
51214;SDS011;63849;47.546;19.254;2023-05-10T05:15:08;6.35;;;5.75;;
51214;SDS011;63849;47.546;19.254;2023-05-10T05:17:34;6.78;;;5.65;;
51214;SDS011;63849;47.546;19.254;2023-05-10T05:20:00;5.97;;;5.40;;
51214;SDS011;63849;47.546;19.254;2023-05-10T05:22:28;6.32;;;5.18;;
51214;SDS011;63849;47.546;19.254;2023-05-10T05:24:54;5.80;;;5.15;;
51214;SDS011;63849;47.546;19.254;2023-05-10T05:27:20;5.78;;;5.18;;
51214;SDS011;63849;47.546;19.254;2023-05-10T05:29:49;5.63;;;5.05;;
51214;SDS011;63849;47.546;19.254;2023-05-10T05:32:16;6.35;;;5.18;;
51214;SDS011;63849;47.546;19.254;2023-05-10T05:34:43;5.65;;;5.05;;
51214;SDS011;63849;47.546;19.254;2023-05-10T05:37:17;6.50;;;5.22;;
51214;SDS011;63849;47.546;19.254;2023-05-10T05:39:44;7.53;;;5.18;;
51214;SDS011;63849;47.546;19.254;2023-05-10T05:42:10;6.57;;;5.57;;
51214;SDS011;63849;47.546;19.254;2023-05-10T05:44:38;8.98;;;5.60;;
51214;SDS011;63849;47.546;19.254;2023-05-10T05:47:05;6.50;;;5.78;;
51214;SDS011;63849;47.546;19.254;2023-05-10T05:49:31;6.03;;;5.43;;
51214;SDS011;63849;47.546;19.254;2023-05-10T05:52:03;6.65;;;5.13;;
51214;SDS011;63849;47.546;19.254;2023-05-10T05:54:30;6.28;;;5.30;;
51214;SDS011;63849;47.546;19.254;2023-05-10T05:56:59;6.13;;;5.53;;
51214;SDS011;63849;47.546;19.254;2023-05-10T05:59:26;5.68;;;5.03;;
51214;SDS011;63849;47.546;19.254;2023-05-10T06:01:52;8.90;;;4.60;;
51214;SDS011;63849;47.546;19.254;2023-05-10T06:04:20;4.93;;;4.53;;
51214;SDS011;63849;47.546;19.254;2023-05-10T06:06:49;6.38;;;5.10;;
51214;SDS011;63849;47.546;19.254;2023-05-10T06:09:14;4.75;;;4.35;;
51214;SDS011;63849;47.546;19.254;2023-05-10T06:11:41;5.75;;;4.60;;
51214;SDS011;63849;47.546;19.254;2023-05-10T06:14:07;6.43;;;5.10;;
51214;SDS011;63849;47.546;19.254;2023-05-10T06:16:35;5.20;;;3.85;;
51214;SDS011;63849;47.546;19.254;2023-05-10T06:19:02;5.10;;;4.63;;
51214;SDS011;63849;47.546;19.254;2023-05-10T06:21:27;5.20;;;4.20;;
51214;SDS011;63849;47.546;19.254;2023-05-10T06:23:53;4.90;;;4.47;;
51214;SDS011;63849;47.546;19.254;2023-05-10T06:26:22;6.25;;;4.40;;
51214;SDS011;63849;47.546;19.254;2023-05-10T06:28:49;4.50;;;4.07;;
51214;SDS011;63849;47.546;19.254;2023-05-10T06:31:15;4.38;;;3.97;;
51214;SDS011;63849;47.546;19.254;2023-05-10T06:33:42;5.13;;;4.35;;
51214;SDS011;63849;47.546;19.254;2023-05-10T06:36:07;5.38;;;4.32;;
51214;SDS011;63849;47.546;19.254;2023-05-10T06:38:33;5.47;;;4.97;;
51214;SDS011;63849;47.546;19.254;2023-05-10T06:40:59;4.32;;;3.72;;
51214;SDS011;63849;47.546;19.254;2023-05-10T06:43:25;4.70;;;3.53;;
51214;SDS011;63849;47.546;19.254;2023-05-10T06:45:56;6.15;;;3.85;;
51214;SDS011;63849;47.546;19.254;2023-05-10T06:48:22;3.95;;;3.63;;
51214;SDS011;63849;47.546;19.254;2023-05-10T06:50:48;6.85;;;4.00;;
51214;SDS011;63849;47.546;19.254;2023-05-10T06:53:14;5.03;;;4.55;;
51214;SDS011;63849;47.546;19.254;2023-05-10T06:55:40;4.47;;;4.07;;
51214;SDS011;63849;47.546;19.254;2023-05-10T06:58:06;4.13;;;3.78;;
51214;SDS011;63849;47.546;19.254;2023-05-10T07:00:32;3.15;;;2.95;;
51214;SDS011;63849;47.546;19.254;2023-05-10T07:02:58;3.40;;;3.10;;
51214;SDS011;63849;47.546;19.254;2023-05-10T07:05:25;4.28;;;3.38;;
51214;SDS011;63849;47.546;19.254;2023-05-10T07:07:54;5.00;;;3.70;;
51214;SDS011;63849;47.546;19.254;2023-05-10T07:10:20;4.20;;;3.00;;
51214;SDS011;63849;47.546;19.254;2023-05-10T07:12:51;3.95;;;3.65;;
51214;SDS011;63849;47.546;19.254;2023-05-10T07:15:23;3.33;;;3.05;;
51214;SDS011;63849;47.546;19.254;2023-05-10T07:17:48;4.15;;;3.83;;
51214;SDS011;63849;47.546;19.254;2023-05-10T07:20:14;5.82;;;4.32;;
51214;SDS011;63849;47.546;19.254;2023-05-10T07:22:40;7.78;;;4.25;;
51214;SDS011;63849;47.546;19.254;2023-05-10T07:25:06;5.45;;;4.20;;
51214;SDS011;63849;47.546;19.254;2023-05-10T07:27:32;6.05;;;4.20;;
51214;SDS011;63849;47.546;19.254;2023-05-10T07:29:59;4.38;;;3.97;;
51214;SDS011;63849;47.546;19.254;2023-05-10T07:32:25;4.18;;;3.78;;
51214;SDS011;63849;47.546;19.254;2023-05-10T07:34:51;5.45;;;4.03;;
51214;SDS011;63849;47.546;19.254;2023-05-10T07:37:17;4.25;;;3.85;;
51214;SDS011;63849;47.546;19.254;2023-05-10T07:39:43;4.88;;;3.95;;
51214;SDS011;63849;47.546;19.254;2023-05-10T07:42:11;6.22;;;4.60;;
51214;SDS011;63849;47.546;19.254;2023-05-10T07:44:37;3.95;;;3.65;;
51214;SDS011;63849;47.546;19.254;2023-05-10T07:47:03;5.07;;;4.07;;
51214;SDS011;63849;47.546;19.254;2023-05-10T07:49:29;5.18;;;4.45;;
51214;SDS011;63849;47.546;19.254;2023-05-10T07:51:55;5.93;;;4.30;;
51214;SDS011;63849;47.546;19.254;2023-05-10T07:54:21;4.40;;;4.00;;
51214;SDS011;63849;47.546;19.254;2023-05-10T07:56:47;4.90;;;4.43;;
51214;SDS011;63849;47.546;19.254;2023-05-10T07:59:16;6.18;;;4.70;;
51214;SDS011;63849;47.546;19.254;2023-05-10T08:01:42;4.60;;;4.15;;
51214;SDS011;63849;47.546;19.254;2023-05-10T08:04:08;5.20;;;4.70;;
51214;SDS011;63849;47.546;19.254;2023-05-10T08:06:37;5.00;;;4.28;;
51214;SDS011;63849;47.546;19.254;2023-05-10T08:09:02;4.55;;;4.15;;
51214;SDS011;63849;47.546;19.254;2023-05-10T08:11:30;4.97;;;4.10;;
51214;SDS011;63849;47.546;19.254;2023-05-10T08:13:59;5.20;;;4.05;;
51214;SDS011;63849;47.546;19.254;2023-05-10T08:16:25;4.88;;;3.97;;
51214;SDS011;63849;47.546;19.254;2023-05-10T08:18:51;5.63;;;3.92;;
51214;SDS011;63849;47.546;19.254;2023-05-10T08:21:16;5.68;;;3.78;;
51214;SDS011;63849;47.546;19.254;2023-05-10T08:23:42;4.15;;;3.85;;
51214;SDS011;63849;47.546;19.254;2023-05-10T08:26:08;5.00;;;3.78;;
51214;SDS011;63849;47.546;19.254;2023-05-10T08:28:34;5.57;;;3.65;;
51214;SDS011;63849;47.546;19.254;2023-05-10T08:31:01;5.20;;;3.65;;
51214;SDS011;63849;47.546;19.254;2023-05-10T08:33:27;4.15;;;3.75;;
51214;SDS011;63849;47.546;19.254;2023-05-10T08:35:52;4.53;;;4.03;;
51214;SDS011;63849;47.546;19.254;2023-05-10T08:38:18;3.67;;;2.95;;
51214;SDS011;63849;47.546;19.254;2023-05-10T08:40:44;4.00;;;3.60;;
51214;SDS011;63849;47.546;19.254;2023-05-10T08:43:11;4.75;;;4.20;;
51214;SDS011;63849;47.546;19.254;2023-05-10T08:45:42;4.93;;;3.50;;
51214;SDS011;63849;47.546;19.254;2023-05-10T08:48:11;5.40;;;4.90;;
51214;SDS011;63849;47.546;19.254;2023-05-10T08:50:41;4.97;;;3.45;;
51214;SDS011;63849;47.546;19.254;2023-05-10T08:53:12;4.00;;;3.70;;
51214;SDS011;63849;47.546;19.254;2023-05-10T08:55:40;4.45;;;4.05;;
51214;SDS011;63849;47.546;19.254;2023-05-10T08:58:08;6.40;;;3.90;;
51214;SDS011;63849;47.546;19.254;2023-05-10T09:00:35;4.60;;;3.53;;
51214;SDS011;63849;47.546;19.254;2023-05-10T09:03:05;3.90;;;3.53;;
51214;SDS011;63849;47.546;19.254;2023-05-10T09:05:31;4.32;;;3.53;;
51214;SDS011;63849;47.546;19.254;2023-05-10T09:07:57;5.63;;;4.10;;
51214;SDS011;63849;47.546;19.254;2023-05-10T09:10:29;4.32;;;3.92;;
51214;SDS011;63849;47.546;19.254;2023-05-10T09:12:56;4.00;;;3.70;;
51214;SDS011;63849;47.546;19.254;2023-05-10T09:15:22;5.25;;;4.05;;
51214;SDS011;63849;47.546;19.254;2023-05-10T09:17:53;3.95;;;3.28;;
51214;SDS011;63849;47.546;19.254;2023-05-10T09:20:20;3.70;;;3.40;;
51214;SDS011;63849;47.546;19.254;2023-05-10T09:22:50;3.60;;;3.30;;
51214;SDS011;63849;47.546;19.254;2023-05-10T09:25:18;3.78;;;3.42;;
51214;SDS011;63849;47.546;19.254;2023-05-10T09:27:44;3.88;;;3.58;;
51214;SDS011;63849;47.546;19.254;2023-05-10T09:30:23;3.78;;;3.15;;
51214;SDS011;63849;47.546;19.254;2023-05-10T09:32:51;4.80;;;3.53;;
51214;SDS011;63849;47.546;19.254;2023-05-10T09:35:18;4.22;;;3.85;;
51214;SDS011;63849;47.546;19.254;2023-05-10T09:37:47;5.18;;;3.40;;
51214;SDS011;63849;47.546;19.254;2023-05-10T09:40:15;3.92;;;3.33;;
51214;SDS011;63849;47.546;19.254;2023-05-10T09:42:50;4.65;;;3.03;;
51214;SDS011;63849;47.546;19.254;2023-05-10T09:45:17;3.25;;;2.92;;
51214;SDS011;63849;47.546;19.254;2023-05-10T09:47:43;3.90;;;3.40;;
51214;SDS011;63849;47.546;19.254;2023-05-10T09:50:10;3.40;;;3.10;;
51214;SDS011;63849;47.546;19.254;2023-05-10T09:52:53;3.45;;;3.15;;
51214;SDS011;63849;47.546;19.254;2023-05-10T09:55:24;3.35;;;2.67;;
51214;SDS011;63849;47.546;19.254;2023-05-10T09:58:01;4.28;;;3.50;;
51214;SDS011;63849;47.546;19.254;2023-05-10T10:00:27;4.05;;;3.65;;
51214;SDS011;63849;47.546;19.254;2023-05-10T10:02:59;5.72;;;4.03;;
51214;SDS011;63849;47.546;19.254;2023-05-10T10:05:44;3.45;;;3.15;;
51214;SDS011;63849;47.546;19.254;2023-05-10T10:08:11;4.60;;;3.85;;
51214;SDS011;63849;47.546;19.254;2023-05-10T10:10:39;6.63;;;3.10;;
51214;SDS011;63849;47.546;19.254;2023-05-10T10:13:05;4.43;;;3.72;;
51214;SDS011;63849;47.546;19.254;2023-05-10T10:15:32;3.50;;;2.97;;
51214;SDS011;63849;47.546;19.254;2023-05-10T10:17:59;3.95;;;3.33;;
51214;SDS011;63849;47.546;19.254;2023-05-10T10:20:25;2.70;;;2.50;;
51214;SDS011;63849;47.546;19.254;2023-05-10T10:22:55;2.72;;;2.47;;
51214;SDS011;63849;47.546;19.254;2023-05-10T10:25:22;5.40;;;3.10;;
51214;SDS011;63849;47.546;19.254;2023-05-10T10:27:53;3.78;;;2.88;;
51214;SDS011;63849;47.546;19.254;2023-05-10T10:30:31;4.22;;;3.35;;
51214;SDS011;63849;47.546;19.254;2023-05-10T10:35:52;4.90;;;3.50;;
51214;SDS011;63849;47.546;19.254;2023-05-10T10:38:19;3.15;;;2.85;;
51214;SDS011;63849;47.546;19.254;2023-05-10T10:40:46;3.15;;;2.60;;
51214;SDS011;63849;47.546;19.254;2023-05-10T10:43:26;2.80;;;2.60;;
51214;SDS011;63849;47.546;19.254;2023-05-10T10:48:47;6.05;;;2.85;;
51214;SDS011;63849;47.546;19.254;2023-05-10T10:52:12;3.38;;;2.40;;
51214;SDS011;63849;47.546;19.254;2023-05-10T10:54:49;3.30;;;2.90;;
51214;SDS011;63849;47.546;19.254;2023-05-10T10:57:21;3.97;;;2.08;;
51214;SDS011;63849;47.546;19.254;2023-05-10T10:59:47;2.55;;;2.35;;
51214;SDS011;63849;47.546;19.254;2023-05-10T11:02:42;2.20;;;2.00;;
51214;SDS011;63849;47.546;19.254;2023-05-10T11:05:23;3.50;;;2.40;;
51214;SDS011;63849;47.546;19.254;2023-05-10T11:07:56;3.15;;;2.50;;
51214;SDS011;63849;47.546;19.254;2023-05-10T11:10:23;2.28;;;2.08;;
51214;SDS011;63849;47.546;19.254;2023-05-10T11:13:03;3.72;;;2.25;;
51214;SDS011;63849;47.546;19.254;2023-05-10T11:15:30;3.40;;;2.40;;
51214;SDS011;63849;47.546;19.254;2023-05-10T11:17:59;3.22;;;2.17;;
51214;SDS011;63849;47.546;19.254;2023-05-10T11:20:41;2.78;;;2.38;;
51214;SDS011;63849;47.546;19.254;2023-05-10T11:23:11;2.25;;;1.92;;
51214;SDS011;63849;47.546;19.254;2023-05-10T11:25:47;2.40;;;2.20;;
51214;SDS011;63849;47.546;19.254;2023-05-10T11:28:14;2.60;;;2.40;;
51214;SDS011;63849;47.546;19.254;2023-05-10T11:30:43;2.90;;;2.47;;
51214;SDS011;63849;47.546;19.254;2023-05-10T11:33:09;3.58;;;2.38;;
51214;SDS011;63849;47.546;19.254;2023-05-10T11:35:40;2.53;;;2.33;;
51214;SDS011;63849;47.546;19.254;2023-05-10T11:38:10;2.70;;;2.50;;
51214;SDS011;63849;47.546;19.254;2023-05-10T11:40:37;3.42;;;2.22;;
51214;SDS011;63849;47.546;19.254;2023-05-10T11:43:03;4.05;;;2.10;;
51214;SDS011;63849;47.546;19.254;2023-05-10T11:45:32;2.65;;;2.45;;
51214;SDS011;63849;47.546;19.254;2023-05-10T11:47:58;2.50;;;2.10;;
51214;SDS011;63849;47.546;19.254;2023-05-10T11:50:25;3.75;;;1.83;;
51214;SDS011;63849;47.546;19.254;2023-05-10T11:52:55;3.58;;;2.13;;
51214;SDS011;63849;47.546;19.254;2023-05-10T11:55:21;1.90;;;1.63;;
51214;SDS011;63849;47.546;19.254;2023-05-10T11:57:47;2.28;;;1.80;;
51214;SDS011;63849;47.546;19.254;2023-05-10T12:00:16;2.17;;;1.95;;
51214;SDS011;63849;47.546;19.254;2023-05-10T12:02:42;2.25;;;2.10;;
51214;SDS011;63849;47.546;19.254;2023-05-10T12:05:08;4.03;;;2.35;;
51214;SDS011;63849;47.546;19.254;2023-05-10T12:07:35;3.08;;;2.20;;
51214;SDS011;63849;47.546;19.254;2023-05-10T12:10:10;5.55;;;2.25;;
51214;SDS011;63849;47.546;19.254;2023-05-10T12:12:45;2.70;;;2.30;;
51214;SDS011;63849;47.546;19.254;2023-05-10T12:17:44;2.10;;;1.90;;
51214;SDS011;63849;47.546;19.254;2023-05-10T12:20:15;3.17;;;2.10;;
51214;SDS011;63849;47.546;19.254;2023-05-10T12:22:50;2.15;;;2.05;;
51214;SDS011;63849;47.546;19.254;2023-05-10T12:25:18;4.22;;;2.50;;
51214;SDS011;63849;47.546;19.254;2023-05-10T12:27:48;1.90;;;1.80;;
51214;SDS011;63849;47.546;19.254;2023-05-10T12:30:18;2.33;;;1.95;;
51214;SDS011;63849;47.546;19.254;2023-05-10T12:32:48;3.53;;;2.30;;
51214;SDS011;63849;47.546;19.254;2023-05-10T12:35:14;2.28;;;2.03;;
51214;SDS011;63849;47.546;19.254;2023-05-10T12:37:42;2.92;;;2.28;;
51214;SDS011;63849;47.546;19.254;2023-05-10T12:40:09;2.42;;;2.22;;
51214;SDS011;63849;47.546;19.254;2023-05-10T12:42:38;2.08;;;1.98;;
51214;SDS011;63849;47.546;19.254;2023-05-10T12:45:05;1.90;;;1.80;;
51214;SDS011;63849;47.546;19.254;2023-05-10T12:47:32;2.50;;;2.30;;
51214;SDS011;63849;47.546;19.254;2023-05-10T12:49:59;3.83;;;2.15;;
51214;SDS011;63849;47.546;19.254;2023-05-10T12:52:26;2.20;;;2.00;;
51214;SDS011;63849;47.546;19.254;2023-05-10T12:54:53;3.70;;;2.10;;
51214;SDS011;63849;47.546;19.254;2023-05-10T12:57:22;2.20;;;1.70;;
51214;SDS011;63849;47.546;19.254;2023-05-10T12:59:48;5.68;;;1.70;;
51214;SDS011;63849;47.546;19.254;2023-05-10T13:02:14;2.53;;;1.70;;
51214;SDS011;63849;47.546;19.254;2023-05-10T13:04:42;1.80;;;1.38;;
51214;SDS011;63849;47.546;19.254;2023-05-10T13:07:09;6.93;;;2.10;;
51214;SDS011;63849;47.546;19.254;2023-05-10T13:09:35;2.88;;;1.50;;
51214;SDS011;63849;47.546;19.254;2023-05-10T13:12:01;2.83;;;1.80;;
51214;SDS011;63849;47.546;19.254;2023-05-10T13:14:27;3.22;;;1.75;;
51214;SDS011;63849;47.546;19.254;2023-05-10T13:16:53;3.08;;;1.80;;
51214;SDS011;63849;47.546;19.254;2023-05-10T13:19:19;3.45;;;1.52;;
51214;SDS011;63849;47.546;19.254;2023-05-10T13:21:45;2.72;;;1.73;;
51214;SDS011;63849;47.546;19.254;2023-05-10T13:24:11;3.92;;;1.60;;
51214;SDS011;63849;47.546;19.254;2023-05-10T13:26:39;3.33;;;1.85;;
51214;SDS011;63849;47.546;19.254;2023-05-10T13:29:06;3.17;;;1.85;;
51214;SDS011;63849;47.546;19.254;2023-05-10T13:31:32;5.13;;;2.10;;
51214;SDS011;63849;47.546;19.254;2023-05-10T13:33:58;2.55;;;2.15;;
51214;SDS011;63849;47.546;19.254;2023-05-10T13:36:24;2.17;;;1.98;;
51214;SDS011;63849;47.546;19.254;2023-05-10T13:38:50;2.67;;;1.90;;
51214;SDS011;63849;47.546;19.254;2023-05-10T13:41:15;2.78;;;1.85;;
51214;SDS011;63849;47.546;19.254;2023-05-10T13:43:41;2.33;;;1.70;;
51214;SDS011;63849;47.546;19.254;2023-05-10T13:46:07;2.20;;;1.50;;
51214;SDS011;63849;47.546;19.254;2023-05-10T13:48:34;6.47;;;1.70;;
51214;SDS011;63849;47.546;19.254;2023-05-10T13:51:02;1.60;;;1.50;;
51214;SDS011;63849;47.546;19.254;2023-05-10T13:53:29;1.85;;;1.70;;
51214;SDS011;63849;47.546;19.254;2023-05-10T13:55:54;3.17;;;1.50;;
51214;SDS011;63849;47.546;19.254;2023-05-10T13:58:22;1.70;;;1.60;;
51214;SDS011;63849;47.546;19.254;2023-05-10T14:00:48;4.40;;;1.75;;
51214;SDS011;63849;47.546;19.254;2023-05-10T14:03:14;3.05;;;1.98;;
51214;SDS011;63849;47.546;19.254;2023-05-10T14:05:42;3.70;;;1.77;;
51214;SDS011;63849;47.546;19.254;2023-05-10T14:08:09;6.55;;;2.00;;
51214;SDS011;63849;47.546;19.254;2023-05-10T14:10:38;6.07;;;1.80;;
51214;SDS011;63849;47.546;19.254;2023-05-10T14:13:04;2.72;;;2.00;;
51214;SDS011;63849;47.546;19.254;2023-05-10T14:15:30;2.10;;;1.90;;
51214;SDS011;63849;47.546;19.254;2023-05-10T14:17:56;3.17;;;1.63;;
51214;SDS011;63849;47.546;19.254;2023-05-10T14:20:21;3.70;;;1.70;;
51214;SDS011;63849;47.546;19.254;2023-05-10T14:22:47;2.00;;;1.65;;
51214;SDS011;63849;47.546;19.254;2023-05-10T14:25:13;3.95;;;1.63;;
51214;SDS011;63849;47.546;19.254;2023-05-10T14:27:39;2.45;;;1.70;;
51214;SDS011;63849;47.546;19.254;2023-05-10T14:30:05;7.05;;;1.63;;
51214;SDS011;63849;47.546;19.254;2023-05-10T14:32:31;1.40;;;1.30;;
51214;SDS011;63849;47.546;19.254;2023-05-10T14:35:01;3.22;;;1.55;;
51214;SDS011;63849;47.546;19.254;2023-05-10T14:37:27;1.70;;;1.40;;
51214;SDS011;63849;47.546;19.254;2023-05-10T14:39:56;3.75;;;1.50;;
51214;SDS011;63849;47.546;19.254;2023-05-10T14:42:21;1.45;;;1.35;;
51214;SDS011;63849;47.546;19.254;2023-05-10T14:44:47;3.33;;;1.45;;
51214;SDS011;63849;47.546;19.254;2023-05-10T14:47:13;2.20;;;1.60;;
51214;SDS011;63849;47.546;19.254;2023-05-10T14:49:39;2.47;;;1.45;;
51214;SDS011;63849;47.546;19.254;2023-05-10T14:52:08;3.25;;;1.30;;
51214;SDS011;63849;47.546;19.254;2023-05-10T14:54:34;8.05;;;1.77;;
51214;SDS011;63849;47.546;19.254;2023-05-10T14:56:59;1.63;;;1.30;;
51214;SDS011;63849;47.546;19.254;2023-05-10T14:59:25;2.70;;;1.40;;
51214;SDS011;63849;47.546;19.254;2023-05-10T15:01:51;1.48;;;1.35;;
51214;SDS011;63849;47.546;19.254;2023-05-10T15:04:17;2.95;;;1.23;;
51214;SDS011;63849;47.546;19.254;2023-05-10T15:06:42;3.03;;;1.23;;